createdAt,value
2018-09-01T00:00:41.386Z,9.71
2018-09-01T00:01:41.392Z,9.79
2018-09-01T00:02:41.351Z,9.87
2018-09-01T00:03:41.325Z,9.79
2018-09-01T00:04:41.307Z,9.78
2018-09-01T00:05:41.287Z,9.81
2018-09-01T00:06:41.344Z,9.79
2018-09-01T00:07:41.266Z,9.79
2018-09-01T00:08:41.227Z,9.83
2018-09-01T00:09:41.219Z,9.84
2018-09-01T00:10:41.194Z,9.86
2018-09-01T00:11:41.166Z,9.71
2018-09-01T00:12:41.160Z,9.72
2018-09-01T00:13:41.127Z,9.69
2018-09-01T00:14:41.103Z,9.71
2018-09-01T00:15:41.082Z,9.69
2018-09-01T00:16:41.063Z,9.66
2018-09-01T00:17:41.055Z,9.60
2018-09-01T00:18:41.026Z,9.69
2018-09-01T00:19:41.007Z,9.68
2018-09-01T00:20:40.989Z,9.64
2018-09-01T00:21:40.972Z,9.61
2018-09-01T00:22:40.956Z,9.53
2018-09-01T00:23:40.934Z,9.48
2018-09-01T00:24:40.903Z,9.53
2018-09-01T00:25:40.888Z,9.53
2018-09-01T00:26:40.863Z,9.46
2018-09-01T00:27:40.844Z,9.39
2018-09-01T00:28:40.833Z,9.35
2018-09-01T00:29:40.805Z,9.39
2018-09-01T00:30:40.874Z,9.29
2018-09-01T00:31:40.764Z,9.24
2018-09-01T00:32:40.741Z,9.28
2018-09-01T00:33:40.739Z,9.29
2018-09-01T00:34:40.702Z,9.29
2018-09-01T00:35:40.682Z,9.42
2018-09-01T00:36:40.665Z,9.39
2018-09-01T00:37:40.648Z,9.35
2018-09-01T00:38:40.627Z,9.51
2018-09-01T00:39:40.609Z,9.48
2018-09-01T00:40:40.597Z,9.57
2018-09-01T00:41:40.559Z,9.61
2018-09-01T00:42:40.540Z,9.61
2018-09-01T00:43:40.527Z,9.64
2018-09-01T00:44:40.513Z,9.61
2018-09-01T00:45:40.479Z,9.61
2018-09-01T00:46:40.458Z,9.57
2018-09-01T00:47:40.442Z,9.65
2018-09-01T00:48:40.419Z,9.71
2018-09-01T00:49:40.414Z,9.71
2018-09-01T00:50:40.378Z,9.72
2018-09-01T00:51:40.360Z,9.76
2018-09-01T00:52:40.356Z,9.72
2018-09-01T00:53:40.332Z,9.75
2018-09-01T00:54:40.296Z,9.74
2018-09-01T00:55:40.290Z,9.69
2018-09-01T00:56:40.258Z,9.61
2018-09-01T00:57:40.235Z,9.66
2018-09-01T00:58:40.217Z,9.56
2018-09-01T00:59:40.201Z,9.53
2018-09-01T01:00:40.190Z,9.47
2018-09-01T01:01:40.158Z,9.43
2018-09-01T01:02:40.134Z,9.39
2018-09-01T01:03:40.117Z,9.33
2018-09-01T01:04:40.100Z,9.29
2018-09-01T01:05:40.073Z,9.29
2018-09-01T01:06:40.062Z,9.24
2018-09-01T01:07:40.031Z,9.23
2018-09-01T01:08:40.012Z,9.20
2018-09-01T01:09:39.991Z,9.08
2018-09-01T01:10:39.972Z,8.98
2018-09-01T01:11:39.961Z,8.98
2018-09-01T01:12:39.931Z,9.02
2018-09-01T01:13:39.914Z,8.96
2018-09-01T01:14:39.916Z,8.99
2018-09-01T01:15:39.872Z,8.94
2018-09-01T01:16:39.858Z,8.94
2018-09-01T01:17:39.828Z,8.96
2018-09-01T01:18:39.816Z,8.98
2018-09-01T01:19:39.787Z,9.05
2018-09-01T01:20:39.769Z,9.02
2018-09-01T01:21:39.779Z,9.04
2018-09-01T01:22:39.731Z,9.11
2018-09-01T01:23:39.713Z,9.04
2018-09-01T01:24:39.684Z,8.98
2018-09-01T01:25:39.683Z,9.01
2018-09-01T11:27:55.118Z,22.40
2018-09-01T11:28:55.073Z,22.94
2018-09-01T11:29:55.057Z,23.65
2018-09-01T11:30:55.040Z,24.28
2018-09-01T11:31:55.041Z,24.16
2018-09-01T11:32:55.011Z,24.81
2018-09-01T11:33:54.994Z,25.32
2018-09-01T11:34:54.981Z,25.15
2018-09-01T11:35:54.971Z,24.73
2018-09-01T11:36:55.021Z,24.87
2018-09-01T11:37:54.948Z,24.76
2018-09-01T11:38:54.921Z,24.45
2018-09-01T11:39:54.911Z,23.20
2018-09-01T11:40:54.895Z,23.93
2018-09-01T11:41:54.885Z,23.42
2018-09-01T11:42:55.040Z,24.16
2018-09-01T11:43:54.859Z,24.22
2018-09-01T11:44:54.846Z,24.88
2018-09-01T11:45:54.834Z,25.38
2018-09-01T11:46:54.822Z,25.54
2018-09-01T11:47:54.806Z,25.17
2018-09-01T11:48:54.827Z,25.38
2018-09-01T11:49:54.783Z,25.36
2018-09-01T11:50:54.771Z,25.05
2018-09-01T11:51:54.759Z,25.06
2018-09-01T11:52:54.748Z,25.52
2018-09-01T11:53:54.768Z,25.45
2018-09-01T11:54:54.722Z,25.47
2018-09-01T11:55:54.711Z,25.21
2018-09-01T11:56:54.698Z,25.64
2018-09-01T11:57:54.685Z,25.77
2018-09-01T11:58:54.823Z,25.72
2018-09-01T11:59:54.682Z,25.79
2018-09-01T12:00:54.654Z,25.67
2018-09-01T12:01:54.644Z,25.30
2018-09-01T12:02:54.630Z,25.52
2018-09-01T12:03:54.616Z,25.35
2018-09-01T12:04:54.613Z,24.88
2018-09-01T12:05:54.595Z,24.39
2018-09-01T12:06:54.585Z,24.68
2018-09-01T12:07:54.571Z,24.65
2018-09-01T12:08:54.679Z,25.38
2018-09-01T12:09:54.561Z,25.83
2018-09-01T12:10:54.537Z,26.60
2018-09-01T12:11:54.525Z,26.58
2018-09-01T12:12:54.514Z,26.15
2018-09-01T12:13:54.503Z,25.77
2018-09-01T12:14:54.494Z,25.95
2018-09-01T12:15:54.544Z,25.28
2018-09-01T12:16:54.472Z,25.67
2018-09-01T12:17:54.459Z,25.35
2018-09-01T12:18:54.450Z,24.83
2018-09-01T12:19:54.448Z,24.91
2018-09-01T12:20:54.441Z,24.93
2018-09-01T12:21:54.420Z,25.80
2018-09-01T12:22:54.405Z,25.52
2018-09-01T12:23:54.395Z,25.61
2018-09-01T12:24:54.386Z,25.82
2018-09-01T12:25:54.372Z,26.57
2018-09-01T12:26:54.373Z,26.44
2018-09-01T12:27:54.350Z,25.30
2018-09-01T12:28:54.340Z,25.13
2018-09-01T12:29:54.329Z,24.57
2018-09-01T12:30:54.319Z,24.34
2018-09-01T12:31:54.317Z,24.31
2018-09-01T12:32:54.297Z,24.35
2018-09-01T12:33:54.287Z,24.85
2018-09-01T12:34:54.280Z,25.30
2018-09-01T12:35:54.265Z,25.90
2018-09-01T12:36:54.275Z,25.90
2018-09-01T12:37:54.245Z,26.35
2018-09-01T12:38:54.237Z,26.17
2018-09-01T12:39:54.223Z,26.02
2018-09-01T12:40:54.214Z,26.15
2018-09-01T12:41:54.255Z,26.70
2018-09-01T12:42:54.233Z,26.75
2018-09-01T12:43:54.179Z,26.67
2018-09-01T12:44:54.170Z,27.07
2018-09-01T12:45:54.159Z,27.43
2018-09-01T12:46:54.149Z,27.96
2018-09-01T12:47:54.140Z,25.88
2018-09-01T12:48:54.137Z,24.24
2018-09-01T12:49:54.122Z,22.97
2018-09-01T12:50:54.109Z,22.68
2018-09-01T12:51:54.099Z,23.75
2018-09-01T12:52:54.087Z,24.98
2018-09-01T12:53:54.112Z,25.21
2018-09-01T12:54:54.066Z,26.13
2018-09-01T12:55:54.056Z,26.23
2018-09-01T12:56:54.046Z,25.67
2018-09-01T12:57:54.036Z,25.83
2018-09-01T12:58:54.027Z,25.33
2018-09-01T12:59:54.032Z,25.45
2018-09-01T13:00:54.005Z,25.79
2018-09-01T13:01:53.996Z,26.18
2018-09-01T13:02:53.986Z,27.00
2018-09-01T13:03:53.975Z,27.62
2018-09-01T13:04:53.968Z,27.24
2018-09-01T13:05:53.967Z,27.34
2018-09-01T13:06:53.945Z,26.17
2018-09-01T13:07:53.967Z,25.05
2018-09-01T13:08:53.924Z,26.07
2018-09-01T13:09:53.917Z,26.51
2018-09-01T13:10:53.915Z,26.87
2018-09-01T13:11:53.895Z,27.18
2018-09-01T13:12:53.886Z,27.21
2018-09-01T13:13:53.878Z,27.66
2018-09-01T13:14:53.874Z,27.14
2018-09-01T13:15:53.874Z,26.84
2018-09-01T13:16:53.853Z,26.21
2018-09-01T13:17:53.839Z,26.28
2018-09-01T13:18:53.832Z,26.23
2018-09-01T13:19:53.819Z,25.91
2018-09-01T13:20:53.814Z,26.94
2018-09-01T13:21:53.833Z,27.31
2018-09-01T13:22:53.795Z,27.43
2018-09-01T13:23:53.788Z,27.79
2018-09-01T13:24:53.779Z,27.84
2018-09-01T13:25:53.771Z,27.79
2018-09-01T13:26:53.772Z,26.30
2018-09-01T13:27:53.750Z,26.20
2018-09-01T13:28:53.740Z,26.60
2018-09-01T13:29:53.732Z,26.84
2018-09-01T13:30:53.727Z,26.45
2018-09-01T13:31:53.716Z,26.81
2018-09-01T13:32:53.715Z,26.60
2018-09-01T13:33:53.696Z,26.09
2018-09-01T13:34:53.691Z,25.58
2018-09-01T13:35:53.681Z,25.17
2018-09-01T13:36:53.671Z,25.69
2018-09-01T13:37:53.675Z,25.70
2018-09-01T13:38:53.674Z,26.07
2018-09-01T13:39:53.650Z,26.66
2018-09-01T13:40:53.638Z,25.69
2018-09-01T13:41:53.630Z,26.44
2018-09-01T13:42:53.654Z,25.70
2018-09-01T13:43:53.611Z,25.51
2018-09-01T13:44:53.603Z,25.69
2018-09-01T13:45:53.613Z,24.93
2018-09-01T13:46:53.589Z,25.20
2018-09-01T13:47:53.581Z,25.18
2018-09-01T13:48:53.584Z,25.83
2018-09-01T13:49:53.563Z,26.66
2018-09-01T13:50:53.554Z,26.25
2018-09-01T13:51:53.546Z,26.82
2018-09-01T13:52:53.536Z,26.75
2018-09-01T13:53:53.560Z,25.06
2018-09-01T13:54:53.525Z,26.01
2018-09-01T13:55:53.514Z,27.25
2018-09-01T13:56:53.504Z,27.47
2018-09-01T13:57:53.497Z,26.87
2018-09-01T13:58:53.488Z,27.62
2018-09-01T13:59:53.493Z,28.33
2018-09-01T14:00:53.472Z,28.14
2018-09-01T14:01:53.466Z,29.02
2018-09-01T14:02:53.461Z,29.23
2018-09-01T14:03:53.447Z,29.30
2018-09-01T14:04:53.454Z,29.27
2018-09-01T14:05:53.437Z,28.88
2018-09-01T14:06:53.429Z,29.18
2018-09-01T14:07:53.498Z,28.37
2018-09-01T14:08:53.413Z,28.00
2018-09-01T14:09:53.421Z,27.74
2018-09-01T14:10:53.402Z,28.33
2018-09-01T14:11:53.393Z,26.99
2018-09-01T14:12:53.384Z,27.39
2018-09-01T14:13:53.387Z,28.31
2018-09-01T14:14:53.566Z,28.09
2018-09-01T14:15:53.429Z,26.69
2018-09-01T14:16:53.358Z,26.72
2018-09-01T14:17:53.352Z,26.54
2018-09-01T14:18:53.343Z,26.07
2018-09-01T14:19:53.337Z,27.47
2018-09-01T14:20:53.342Z,27.49
2018-09-01T14:21:53.324Z,26.85
2018-09-01T14:22:53.317Z,27.21
2018-09-01T14:23:53.310Z,25.24
2018-09-01T14:24:53.304Z,25.30
2018-09-01T14:25:53.298Z,25.79
2018-09-01T14:26:53.299Z,25.72
2018-09-01T14:27:53.281Z,24.60
2018-09-01T14:28:53.278Z,25.39
2018-09-01T14:29:53.270Z,25.24
2018-09-01T14:30:53.264Z,25.64
2018-09-01T14:31:53.270Z,26.13
2018-09-01T14:32:53.272Z,25.54
2018-09-01T14:33:53.245Z,24.27
2018-09-01T14:34:53.240Z,23.72
2018-09-01T14:35:53.228Z,23.73
2018-09-01T14:36:53.239Z,25.35
2018-09-01T14:37:53.215Z,26.50
2018-09-01T14:38:53.210Z,26.73
2018-09-01T14:39:53.199Z,27.03
2018-09-01T14:40:53.472Z,26.85
2018-09-01T14:41:53.186Z,27.62
2018-09-01T14:42:53.189Z,26.52
2018-09-01T14:43:53.171Z,26.63
2018-09-01T14:44:53.168Z,26.67
2018-09-01T14:45:53.158Z,26.66
2018-09-01T14:46:53.167Z,27.17
2018-09-01T14:47:53.158Z,26.30
2018-09-01T14:48:53.137Z,26.85
2018-09-01T14:49:53.132Z,25.58
2018-09-01T14:50:53.126Z,24.46
2018-09-01T14:51:53.120Z,23.95
2018-09-01T14:52:53.113Z,25.17
2018-09-01T14:53:53.113Z,26.62
2018-09-01T14:54:53.098Z,27.13
2018-09-01T14:55:53.090Z,27.02
2018-09-01T14:56:53.084Z,27.49
2018-09-01T14:57:53.079Z,27.04
2018-09-01T14:58:53.088Z,27.96
2018-09-01T14:59:53.063Z,27.93
2018-09-01T15:00:53.058Z,28.03
2018-09-01T15:01:53.050Z,27.93
2018-09-01T15:02:53.043Z,28.04
2018-09-01T15:03:53.037Z,27.82
2018-09-01T15:04:53.044Z,25.92
2018-09-01T15:05:53.029Z,26.07
2018-09-01T15:06:53.019Z,26.39
2018-09-01T15:07:53.013Z,26.73
2018-09-01T15:08:53.006Z,26.33
2018-09-01T15:09:52.999Z,26.12
2018-09-01T15:10:53.003Z,25.35
2018-09-01T15:11:52.987Z,25.40
2018-09-01T15:12:52.981Z,25.87
2018-09-01T15:13:52.975Z,26.55
2018-09-01T15:14:52.971Z,27.27
2018-09-01T15:15:52.980Z,26.84
2018-09-01T15:16:52.961Z,24.85
2018-09-01T15:17:52.959Z,23.58
2018-09-01T15:18:52.947Z,23.65
2018-09-01T15:19:52.943Z,23.43
2018-09-01T15:20:52.938Z,23.42
2018-09-01T15:21:52.941Z,23.32
2018-09-01T15:22:52.923Z,23.51
2018-09-01T15:23:52.917Z,22.90
2018-09-01T15:24:52.911Z,23.07
2018-09-01T15:25:52.907Z,23.33
2018-09-01T15:26:52.907Z,23.33
2018-09-01T15:27:52.886Z,23.28
2018-09-01T15:28:52.878Z,23.38
2018-09-01T15:29:52.874Z,23.28
2018-09-01T15:30:52.863Z,23.22
2018-09-01T15:31:52.854Z,23.36
2018-09-01T15:32:52.857Z,23.36
2018-09-01T15:33:52.837Z,23.35
2018-09-01T15:34:52.832Z,23.13
2018-09-01T15:35:52.820Z,22.98
2018-09-01T15:36:52.812Z,23.12
2018-09-01T15:37:52.813Z,23.01
2018-09-01T15:38:52.791Z,23.10
2018-09-01T15:39:52.782Z,23.25
2018-09-01T15:40:52.771Z,23.33
2018-09-01T15:41:52.765Z,23.27
2018-09-01T15:42:52.769Z,23.19
2018-09-01T15:43:52.743Z,23.35
2018-09-01T15:44:52.759Z,23.28
2018-09-01T15:45:52.725Z,23.61
2018-09-01T15:46:52.718Z,23.80
2018-09-01T15:47:52.708Z,23.90
2018-09-01T15:48:52.705Z,23.63
2018-09-01T15:49:52.687Z,23.75
2018-09-01T15:50:52.679Z,23.22
2018-09-01T15:51:52.669Z,23.17
2018-09-01T15:52:52.662Z,22.91
2018-09-01T15:53:52.700Z,22.57
2018-09-01T15:54:52.649Z,22.72
2018-09-01T15:55:52.632Z,22.80
2018-09-01T15:56:52.625Z,22.98
2018-09-01T15:57:52.615Z,23.05
2018-09-01T15:58:52.606Z,23.01
2018-09-01T15:59:52.612Z,22.85
2018-09-01T16:00:52.588Z,22.91
2018-09-01T16:01:52.584Z,23.05
2018-09-01T16:02:52.573Z,22.79
2018-09-01T16:03:52.566Z,22.80
2018-09-01T16:04:52.559Z,23.12
2018-09-01T16:05:52.544Z,23.02
2018-09-01T16:06:52.534Z,22.80
2018-09-01T16:07:52.522Z,22.67
2018-09-01T16:08:52.509Z,22.72
2018-09-01T16:09:52.516Z,22.62
2018-09-01T16:10:52.491Z,22.57
2018-09-01T16:11:52.481Z,22.95
2018-09-01T16:12:52.476Z,23.13
2018-09-01T16:13:52.461Z,23.58
2018-09-01T16:14:52.454Z,23.97
2018-09-01T16:15:52.452Z,24.60
2018-09-01T16:16:52.437Z,24.62
2018-09-01T16:17:52.429Z,24.67
2018-09-01T16:18:52.420Z,24.99
2018-09-01T16:19:52.409Z,25.25
2018-09-01T16:20:52.433Z,25.20
2018-09-01T16:21:52.391Z,25.20
2018-09-01T16:22:52.407Z,25.02
2018-09-01T16:23:52.376Z,25.50
2018-09-01T16:24:52.368Z,25.67
2018-09-01T16:25:52.361Z,26.15
2018-09-01T16:26:52.365Z,25.17
2018-09-01T16:27:52.346Z,25.62
2018-09-01T16:28:52.338Z,25.80
2018-09-01T16:29:52.331Z,25.25
2018-09-01T16:30:52.325Z,25.02
2018-09-01T16:31:52.334Z,24.57
2018-09-01T16:32:52.308Z,24.61
2018-09-01T16:33:52.300Z,24.22
2018-09-01T16:34:52.292Z,24.12
2018-09-01T16:35:52.303Z,24.21
2018-09-01T16:36:52.278Z,23.63
2018-09-01T16:37:52.277Z,23.53
2018-09-01T16:38:52.262Z,23.36
2018-09-01T16:39:52.258Z,23.84
2018-09-01T16:40:52.244Z,23.78
2018-09-01T16:41:52.237Z,23.75
2018-09-01T16:42:52.244Z,23.85
2018-09-01T16:43:52.220Z,24.10
2018-09-01T16:44:52.219Z,24.21
2018-09-01T16:45:52.206Z,24.40
2018-09-01T16:46:52.203Z,24.62
2018-09-01T16:47:52.185Z,24.64
2018-09-01T16:48:52.196Z,24.31
2018-09-01T16:49:52.174Z,24.34
2018-09-01T16:50:52.168Z,24.35
2018-09-01T16:51:52.162Z,24.27
2018-09-01T16:52:52.203Z,24.71
2018-09-01T16:53:52.151Z,24.88
2018-09-01T16:54:52.151Z,24.68
2018-09-01T16:55:52.128Z,24.22
2018-09-01T16:56:52.125Z,23.95
2018-09-01T16:57:52.129Z,23.54
2018-09-01T16:58:52.109Z,23.22
2018-09-01T16:59:52.145Z,22.73
2018-09-01T17:00:52.130Z,22.39
2018-09-01T17:01:52.083Z,22.02
2018-09-01T17:02:52.111Z,21.83
2018-09-01T17:03:52.064Z,21.65
2018-09-01T17:04:52.071Z,21.47
2018-09-01T17:05:52.048Z,21.44
2018-09-01T17:06:52.040Z,21.38
2018-09-01T17:07:52.030Z,21.31
2018-09-01T17:08:52.019Z,21.35
2018-09-01T17:09:52.009Z,21.27
2018-09-01T17:10:52.012Z,21.27
2018-09-01T17:11:51.994Z,21.22
2018-09-01T17:12:51.980Z,21.06
2018-09-01T17:13:51.972Z,21.17
2018-09-01T17:14:51.964Z,21.27
2018-09-01T17:15:51.962Z,21.17
2018-09-01T17:16:51.940Z,20.89
2018-09-01T17:17:51.927Z,20.88
2018-09-01T17:18:51.952Z,20.91
2018-09-01T17:19:51.911Z,20.94
2018-09-01T17:20:51.893Z,20.89
2018-09-01T17:21:51.892Z,20.74
2018-09-01T17:22:51.872Z,20.76
2018-09-01T17:23:51.863Z,20.77
2018-09-01T17:24:51.855Z,20.64
2018-09-01T17:25:51.836Z,20.70
2018-09-01T17:26:51.834Z,20.59
2018-09-01T17:27:51.837Z,20.66
2018-09-01T17:28:51.802Z,20.57
2018-09-01T17:29:51.790Z,20.43
2018-09-01T17:30:51.778Z,20.54
2018-09-01T17:31:51.780Z,20.47
2018-09-01T17:32:51.805Z,20.42
2018-09-01T17:33:51.818Z,20.35
2018-09-01T17:34:51.729Z,20.32
2018-09-01T17:35:51.719Z,20.35
2018-09-01T17:36:51.704Z,20.36
2018-09-01T17:37:51.700Z,20.32
2018-09-01T17:38:51.677Z,20.29
2018-09-01T17:39:51.669Z,20.21
2018-09-01T17:40:51.648Z,20.14
2018-09-01T17:41:51.639Z,20.08
2018-09-01T17:42:51.644Z,20.06
2018-09-01T17:43:51.611Z,20.03
2018-09-01T17:44:51.599Z,19.95
2018-09-01T17:45:51.802Z,19.95
2018-09-01T17:46:51.572Z,19.86
2018-09-01T17:47:51.562Z,19.88
2018-09-01T17:48:51.558Z,19.83
2018-09-01T17:49:51.536Z,19.69
2018-09-01T17:50:51.522Z,19.62
2018-09-01T17:51:51.510Z,19.62
2018-09-01T17:52:51.491Z,19.56
2018-09-01T17:53:51.498Z,19.47
2018-09-01T17:54:51.468Z,19.41
2018-09-01T17:55:51.456Z,19.40
2018-09-01T17:56:51.439Z,19.48
2018-09-01T17:57:51.424Z,19.41
2018-09-01T17:58:51.454Z,19.32
2018-09-01T17:59:51.397Z,19.19
2018-09-01T18:00:51.389Z,19.18
2018-09-01T18:01:51.401Z,19.19
2018-09-01T18:02:51.364Z,19.06
2018-09-01T18:03:51.356Z,19.07
2018-09-01T18:04:51.365Z,19.11
2018-09-01T18:05:51.313Z,18.98
2018-09-01T18:06:51.307Z,18.92
2018-09-01T18:07:51.284Z,18.98
2018-09-01T18:08:51.270Z,18.85
2018-09-01T18:09:51.289Z,18.90
2018-09-01T18:10:51.349Z,18.95
2018-09-01T18:11:51.229Z,18.81
2018-09-01T18:12:51.224Z,18.90
2018-09-01T18:13:51.218Z,18.88
2018-09-01T18:14:51.186Z,18.90
2018-09-01T18:15:51.183Z,18.84
2018-09-01T18:16:51.162Z,18.81
2018-09-01T18:17:51.140Z,18.72
2018-09-01T18:18:51.129Z,18.69
2018-09-01T18:19:51.123Z,18.62
2018-09-01T18:20:51.101Z,18.60
2018-09-01T18:21:51.083Z,18.50
2018-09-01T18:22:51.096Z,18.39
2018-09-01T18:23:51.053Z,18.39
2018-09-01T18:24:51.060Z,18.41
2018-09-01T18:25:51.041Z,18.39
2018-09-01T18:26:51.012Z,18.35
2018-09-01T18:27:50.997Z,18.41
2018-09-01T18:28:50.986Z,18.26
2018-09-01T18:29:50.964Z,18.27
2018-09-01T18:30:50.966Z,18.27
2018-09-01T18:31:50.936Z,18.25
2018-09-01T18:32:50.921Z,18.14
2018-09-01T18:33:50.902Z,18.11
2018-09-01T18:34:50.890Z,18.07
2018-09-01T18:35:50.931Z,17.99
2018-09-01T18:36:50.874Z,17.89
2018-09-01T18:37:50.879Z,17.92
2018-09-01T18:38:50.830Z,17.59
2018-09-01T18:39:50.820Z,17.63
2018-09-01T18:40:50.854Z,17.66
2018-09-01T18:41:50.809Z,17.58
2018-09-01T18:42:50.770Z,17.44
2018-09-01T18:43:50.777Z,17.31
2018-09-01T18:44:50.740Z,17.25
2018-09-01T18:45:50.724Z,17.08
2018-09-01T18:46:50.731Z,17.11
2018-09-01T18:47:50.694Z,17.07
2018-09-01T18:48:50.678Z,17.07
2018-09-01T18:49:50.671Z,17.06
2018-09-01T18:50:50.652Z,17.00
2018-09-01T18:51:50.629Z,16.96
2018-09-01T18:52:50.631Z,16.88
2018-09-01T18:53:50.606Z,16.82
2018-09-01T18:54:50.585Z,16.86
2018-09-01T18:55:50.569Z,16.81
2018-09-01T18:56:50.560Z,16.85
2018-09-01T18:57:50.540Z,16.71
2018-09-01T18:58:50.532Z,16.67
2018-09-01T18:59:50.508Z,16.52
2018-09-01T19:00:50.493Z,16.56
2018-09-01T19:01:50.489Z,16.49
2018-09-01T19:02:50.462Z,16.43
2018-09-01T19:03:50.477Z,16.38
2018-09-01T19:04:50.463Z,16.38
2018-09-01T19:05:50.417Z,16.27
2018-09-01T19:06:50.396Z,16.45
2018-09-01T19:07:50.382Z,16.57
2018-09-01T19:08:50.364Z,16.45
2018-09-01T19:09:50.386Z,16.45
2018-09-01T19:10:50.338Z,16.38
2018-09-01T19:11:50.318Z,16.42
2018-09-01T19:12:50.308Z,16.73
2018-09-01T19:13:50.453Z,16.66
2018-09-01T19:14:50.269Z,16.70
2018-09-01T19:15:50.268Z,16.60
2018-09-01T19:16:50.311Z,16.56
2018-09-01T19:17:50.222Z,16.50
2018-09-01T19:18:50.204Z,16.41
2018-09-01T19:19:50.189Z,16.41
2018-09-01T19:20:50.179Z,16.31
2018-09-01T19:21:50.920Z,16.28
2018-09-01T19:22:50.180Z,16.20
2018-09-01T19:23:50.125Z,16.09
2018-09-01T19:24:50.110Z,16.02
2018-09-01T19:25:50.095Z,16.01
2018-09-01T19:26:50.116Z,15.82
2018-09-01T19:27:50.076Z,15.75
2018-09-01T19:28:50.048Z,15.72
2018-09-01T19:29:50.029Z,15.65
2018-09-01T19:30:50.012Z,15.59
2018-09-01T19:31:50.011Z,15.53
2018-09-01T19:32:50.090Z,15.51
2018-09-01T19:33:49.964Z,15.43
2018-09-01T19:34:49.945Z,15.39
2018-09-01T19:35:49.930Z,15.17
2018-09-01T19:36:49.927Z,15.11
2018-09-01T19:37:49.897Z,15.16
2018-09-01T19:38:49.938Z,15.06
2018-09-01T19:39:49.862Z,14.92
2018-09-01T19:40:49.880Z,14.92
2018-09-01T19:41:49.832Z,14.98
2018-09-01T19:42:49.831Z,14.81
2018-09-01T19:43:49.812Z,14.77
2018-09-01T19:44:49.859Z,14.73
2018-09-01T19:45:49.766Z,14.62
2018-09-01T19:46:49.751Z,14.68
2018-09-01T19:47:49.780Z,14.60
2018-09-01T19:48:49.728Z,14.57
2018-09-01T19:49:49.713Z,14.61
2018-09-01T19:50:49.683Z,14.51
2018-09-01T19:51:49.667Z,14.52
2018-09-01T19:52:49.649Z,14.40
2018-09-01T19:53:49.649Z,14.37
2018-09-01T19:54:49.617Z,14.39
2018-09-01T19:55:49.611Z,14.32
2018-09-01T19:56:49.583Z,14.37
2018-09-01T19:57:49.568Z,14.27
2018-09-01T19:58:49.582Z,14.29
2018-09-01T19:59:49.535Z,14.20
2018-09-01T20:00:49.519Z,14.18
2018-09-01T20:01:49.508Z,14.06
2018-09-01T20:02:49.478Z,14.09
2018-09-01T20:03:49.463Z,14.07
2018-09-01T20:04:49.492Z,14.06
2018-09-01T20:05:49.445Z,14.00
2018-09-01T20:06:49.414Z,13.87
2018-09-01T20:07:49.400Z,13.85
2018-09-01T20:08:49.380Z,13.78
2018-09-01T20:09:49.380Z,13.81
2018-09-01T20:10:49.345Z,13.84
2018-09-01T20:11:49.329Z,13.71
2018-09-01T20:12:49.312Z,13.71
2018-09-01T20:13:49.295Z,13.71
2018-09-01T20:14:49.292Z,13.70
2018-09-01T20:15:49.273Z,13.73
2018-09-01T20:16:49.242Z,13.52
2018-09-01T20:17:49.225Z,13.54
2018-09-01T20:18:49.212Z,13.54
2018-09-01T20:19:49.192Z,13.52
2018-09-01T20:20:49.195Z,13.55
2018-09-01T20:21:49.158Z,13.46
2018-09-01T20:22:49.143Z,13.42
2018-09-01T20:23:49.137Z,13.41
2018-09-01T20:24:49.104Z,13.39
2018-09-01T20:25:49.106Z,13.28
2018-09-01T20:26:49.073Z,13.20
2018-09-01T20:27:49.052Z,13.23
2018-09-01T20:28:49.034Z,13.15
2018-09-01T20:29:49.069Z,13.12
2018-09-01T20:30:49.016Z,13.08
2018-09-01T20:31:49.049Z,13.03
2018-09-01T20:32:48.968Z,13.08
2018-09-01T20:33:48.951Z,13.01
2018-09-01T20:34:48.934Z,13.05
2018-09-01T20:35:48.914Z,13.11
2018-09-01T20:36:48.908Z,13.17
2018-09-01T20:37:48.930Z,13.15
2018-09-01T20:38:48.863Z,13.14
2018-09-01T20:39:48.842Z,13.03
2018-09-01T20:40:48.826Z,12.97
2018-09-01T20:41:48.827Z,12.95
2018-09-01T20:42:48.790Z,12.90
2018-09-01T20:43:48.784Z,12.85
2018-09-01T20:44:48.755Z,12.83
2018-09-01T20:45:48.737Z,12.83
2018-09-01T20:46:48.722Z,12.83
2018-09-01T20:47:48.725Z,12.85
2018-09-01T20:48:48.688Z,12.65
2018-09-01T20:49:48.666Z,12.64
2018-09-01T20:50:48.649Z,12.70
2018-09-01T20:51:48.661Z,12.67
2018-09-01T20:52:48.627Z,12.60
2018-09-01T20:53:48.596Z,12.56
2018-09-01T20:54:48.580Z,12.60
2018-09-01T20:55:48.560Z,12.52
2018-09-01T20:56:48.541Z,12.62
2018-09-01T20:57:48.600Z,12.53
2018-09-01T20:58:48.513Z,12.54
2018-09-01T20:59:48.488Z,12.53
2018-09-01T21:00:48.481Z,12.45
2018-09-01T21:01:48.451Z,12.49
2018-09-01T21:02:48.657Z,12.49
2018-09-01T21:03:48.531Z,12.49
2018-09-01T21:04:48.451Z,12.50
2018-09-01T21:05:48.386Z,12.45
2018-09-01T21:06:48.390Z,12.42
2018-09-01T21:07:48.352Z,12.31
2018-09-01T21:08:48.340Z,12.42
2018-09-01T21:09:48.309Z,12.39
2018-09-01T21:10:48.294Z,12.35
2018-09-01T21:11:48.299Z,12.39
2018-09-01T21:12:48.260Z,12.39
2018-09-01T21:13:48.302Z,12.29
2018-09-01T21:14:48.227Z,12.34
2018-09-01T21:15:48.200Z,12.38
2018-09-01T21:16:48.195Z,12.31
2018-09-01T21:17:48.165Z,12.37
2018-09-01T21:18:48.146Z,12.35
2018-09-01T21:19:48.144Z,12.34
2018-09-01T21:20:48.118Z,12.35
2018-09-01T21:21:48.123Z,12.21
2018-09-01T21:22:48.074Z,12.12
2018-09-01T21:23:48.054Z,12.17
2018-09-01T21:24:48.088Z,12.13
2018-09-01T21:25:48.035Z,11.96
2018-09-01T21:26:48.003Z,11.96
2018-09-01T21:27:47.988Z,11.94
2018-09-01T21:28:47.965Z,11.96
2018-09-01T21:29:47.956Z,12.07
2018-09-01T21:30:47.933Z,11.86
2018-09-01T21:31:47.920Z,11.94
2018-09-01T21:32:47.896Z,11.82
2018-09-01T21:33:47.897Z,11.90
2018-09-01T21:34:47.886Z,11.85
2018-09-01T21:35:47.848Z,12.01
2018-09-01T21:36:47.815Z,11.91
2018-09-01T21:37:47.806Z,12.01
2018-09-01T21:38:47.781Z,11.95
2018-09-01T21:39:47.796Z,12.01
2018-09-01T21:40:47.754Z,12.05
2018-09-01T21:41:47.732Z,12.01
2018-09-01T21:42:47.710Z,12.10
2018-09-01T21:43:47.687Z,12.16
2018-09-01T21:44:47.677Z,12.14
2018-09-01T21:45:47.681Z,12.20
2018-09-01T21:46:47.636Z,12.14
2018-09-01T21:47:47.615Z,12.16
2018-09-01T21:48:47.651Z,12.05
2018-09-01T21:49:47.657Z,11.98
2018-09-01T21:50:47.565Z,11.98
2018-09-01T21:51:47.548Z,11.99
2018-09-01T21:52:47.522Z,11.88
2018-09-01T21:53:47.509Z,11.95
2018-09-01T21:54:47.486Z,12.01
2018-09-01T21:55:47.467Z,12.04
2018-09-01T21:56:47.459Z,11.99
2018-09-01T21:57:47.431Z,12.02
2018-09-01T21:58:47.411Z,12.02
2018-09-01T21:59:47.396Z,11.99
2018-09-01T22:00:47.373Z,11.95
2018-09-01T22:01:47.374Z,12.09
2018-09-01T22:02:47.348Z,11.98
2018-09-01T22:03:47.320Z,11.98
2018-09-01T22:04:47.301Z,12.02
2018-09-01T22:05:47.283Z,11.96
2018-09-01T22:06:47.262Z,11.98
2018-09-01T22:07:47.257Z,11.96
2018-09-01T22:08:47.226Z,11.91
2018-09-01T22:09:47.207Z,11.96
2018-09-01T22:10:47.189Z,11.90
2018-09-01T22:11:47.170Z,11.95
2018-09-01T22:12:47.185Z,11.90
2018-09-01T22:13:47.134Z,11.85
2018-09-01T22:14:47.114Z,11.90
2018-09-01T22:15:47.094Z,11.80
2018-09-01T22:16:47.076Z,11.86
2018-09-01T22:17:47.064Z,11.91
2018-09-01T22:18:47.052Z,11.78
2018-09-01T22:19:47.018Z,11.76
2018-09-01T22:20:47.010Z,11.80
2018-09-01T22:21:46.981Z,11.67
2018-09-01T22:22:46.962Z,11.70
2018-09-01T22:23:46.959Z,11.73
2018-09-01T22:24:46.928Z,11.62
2018-09-01T22:25:46.906Z,11.65
2018-09-01T22:26:46.888Z,11.64
2018-09-01T22:27:46.874Z,11.62
2018-09-01T22:28:46.869Z,11.60
2018-09-01T22:29:46.830Z,11.58
2018-09-01T22:30:46.811Z,11.55
2018-09-01T22:31:46.790Z,11.52
2018-09-01T22:32:46.778Z,11.54
2018-09-01T22:33:46.777Z,11.47
2018-09-01T22:34:46.749Z,11.55
2018-09-01T22:35:46.717Z,11.49
2018-09-01T22:36:46.700Z,11.44
2018-09-01T22:37:46.680Z,11.52
2018-09-01T22:38:46.703Z,11.49
2018-09-01T22:39:46.652Z,11.55
2018-09-01T22:40:46.697Z,11.55
2018-09-01T22:41:46.602Z,11.44
2018-09-01T22:42:46.585Z,11.44
2018-09-01T22:43:46.567Z,11.39
2018-09-01T22:44:46.567Z,11.39
2018-09-01T22:45:46.527Z,11.42
2018-09-01T22:46:46.511Z,11.39
2018-09-01T22:47:46.503Z,11.39
2018-09-01T22:48:46.470Z,11.39
2018-09-01T22:49:46.463Z,11.33
2018-09-01T22:50:46.455Z,11.27
2018-09-01T22:51:46.412Z,11.22
2018-09-01T22:52:46.393Z,11.10
2018-09-01T22:53:46.378Z,11.07
2018-09-01T22:54:46.358Z,11.06
2018-09-01T22:55:46.365Z,11.07
2018-09-01T22:56:46.320Z,10.97